Lake Delta, New York
Current Conditions -  °F | °C
As of 2:53 AM on Saturday 29 Nov 2014 (Local Time) from KRME Reporting Station
Overcast Overcast  
Wind Chill: 22°   Ceiling: 4600
Heat Index: 22°   Visibility: 10mi
Dew Point: 18°   Wind: 3mph
Humidity: 85%   Direction: 110°ESE
Pressure: 30.25"   Gusts: NA
Location:  43.2466°N, 75.4624°W
Report Text: KRME 290753Z AUTO 11003KT 10SM BKN046 OVC110 M06/M08 A3025 RMK AO2 SLP251 T10561078 TSNO
Loading
Personal Weather Stations






























Interactive Weather Map New forecast layout! Learn more

10-Day Weather Forecast

Advertisements
Track Severe Weather on mobile